createdAt,value
2019-02-17T00:00:35.232Z,3.36
2019-02-17T00:01:35.240Z,3.28
2019-02-17T00:02:36.063Z,3.26
2019-02-17T00:03:35.192Z,3.34
2019-02-17T00:04:35.202Z,3.25
2019-02-17T00:05:35.265Z,3.25
2019-02-17T00:06:35.162Z,3.29
2019-02-17T00:07:35.149Z,3.29
2019-02-17T00:08:35.174Z,3.29
2019-02-17T00:09:35.118Z,3.25
2019-02-17T00:10:35.124Z,3.22
2019-02-17T00:11:35.099Z,3.29
2019-02-17T00:12:35.085Z,3.26
2019-02-17T00:13:35.220Z,3.14
2019-02-17T00:14:35.064Z,3.28
2019-02-17T00:15:35.059Z,3.16
2019-02-17T00:16:35.132Z,3.10
2019-02-17T00:17:35.038Z,3.13
2019-02-17T00:18:35.046Z,3.13
2019-02-17T00:19:35.008Z,3.05
2019-02-17T00:20:34.998Z,3.03
2019-02-17T00:21:34.988Z,3.07
2019-02-17T00:22:34.992Z,3.19
2019-02-17T00:23:34.987Z,3.14
2019-02-17T00:24:34.951Z,3.19
2019-02-17T00:25:34.966Z,3.19
2019-02-17T00:26:34.954Z,3.13
2019-02-17T00:27:34.929Z,3.19
2019-02-17T00:28:34.922Z,3.28
2019-02-17T00:29:34.929Z,3.23
2019-02-17T00:30:34.898Z,3.28
2019-02-17T00:31:34.913Z,3.22
2019-02-17T00:32:34.891Z,3.32
2019-02-17T00:33:34.858Z,3.14
2019-02-17T00:34:34.855Z,3.37
2019-02-17T00:35:34.867Z,3.26
2019-02-17T00:36:34.849Z,3.16
2019-02-17T00:37:34.822Z,3.23
2019-02-17T00:38:34.811Z,3.28
2019-02-17T00:39:34.797Z,3.25
2019-02-17T00:40:34.803Z,3.25
2019-02-17T00:41:34.768Z,3.16
2019-02-17T00:42:34.788Z,3.18
2019-02-17T00:43:34.744Z,3.11
2019-02-17T00:44:34.739Z,3.10
2019-02-17T00:45:34.729Z,3.14
2019-02-17T00:46:34.813Z,3.22
2019-02-17T00:47:34.739Z,3.14
2019-02-17T00:48:34.719Z,3.19
2019-02-17T00:49:35.567Z,3.10
2019-02-17T00:50:34.684Z,3.16
2019-02-17T00:51:34.665Z,3.08
2019-02-17T00:52:34.650Z,3.16
2019-02-17T00:53:34.678Z,3.00
2019-02-17T00:54:34.647Z,3.07
2019-02-17T00:55:34.616Z,3.08
2019-02-17T00:56:34.656Z,3.01
2019-02-17T00:57:34.595Z,3.11
2019-02-17T00:58:34.588Z,3.04
2019-02-17T00:59:34.597Z,3.05
2019-02-17T01:00:34.576Z,3.10
2019-02-17T01:01:34.559Z,2.97
2019-02-17T01:02:34.540Z,2.98
2019-02-17T01:03:34.538Z,3.00
2019-02-17T01:04:34.545Z,2.97
2019-02-17T01:05:34.511Z,3.04
2019-02-17T01:06:34.507Z,3.01
2019-02-17T01:07:34.497Z,3.01
2019-02-17T01:08:34.538Z,2.97
2019-02-17T01:09:34.495Z,2.93
2019-02-17T01:10:34.462Z,2.98
2019-02-17T01:11:34.541Z,2.97
2019-02-17T01:12:34.461Z,3.01
2019-02-17T01:13:34.426Z,3.00
2019-02-17T01:14:34.410Z,3.03
2019-02-17T01:15:34.403Z,2.98
2019-02-17T01:16:34.454Z,2.97
2019-02-17T01:17:34.378Z,2.95
2019-02-17T01:18:34.371Z,2.92
2019-02-17T01:19:35.076Z,2.92
2019-02-17T01:20:34.377Z,2.93
2019-02-17T01:21:35.070Z,2.93
2019-02-17T01:22:34.333Z,2.92
2019-02-17T01:23:34.346Z,2.97
2019-02-17T01:24:34.301Z,2.90
2019-02-17T01:25:35.075Z,2.82
2019-02-17T01:26:34.311Z,2.86
2019-02-17T01:27:34.269Z,2.87
2019-02-17T01:28:34.265Z,2.77
2019-02-17T01:29:34.276Z,2.85
2019-02-17T01:30:34.304Z,2.83
2019-02-17T01:31:34.223Z,2.80
2019-02-17T01:32:34.236Z,2.82
2019-02-17T01:33:34.236Z,2.87
2019-02-17T01:34:34.191Z,2.77
2019-02-17T01:35:34.179Z,2.75
2019-02-17T01:36:34.166Z,2.75
2019-02-17T01:37:34.159Z,2.79
2019-02-17T01:38:34.142Z,2.72
2019-02-17T01:39:34.157Z,2.77
2019-02-17T01:40:34.126Z,2.77
2019-02-17T01:41:34.125Z,2.77
2019-02-17T01:42:34.103Z,2.75
2019-02-17T01:43:34.092Z,2.77
2019-02-17T01:44:34.109Z,2.57
2019-02-17T01:45:34.085Z,2.62
2019-02-17T01:46:34.090Z,2.62
2019-02-17T01:47:34.042Z,2.53
2019-02-17T01:48:34.029Z,2.60
2019-02-17T01:49:34.033Z,2.60
2019-02-17T01:50:34.017Z,2.51
2019-02-17T01:51:34.003Z,2.57
2019-02-17T01:52:34.106Z,2.49
2019-02-17T01:53:34.013Z,2.47
2019-02-17T01:54:33.964Z,2.60
2019-02-17T01:55:34.018Z,2.53
2019-02-17T01:56:33.950Z,2.56
2019-02-17T01:57:33.936Z,2.49
2019-02-17T01:58:33.988Z,2.51
2019-02-17T01:59:33.936Z,2.53
2019-02-17T02:00:33.901Z,2.54
2019-02-17T02:01:33.890Z,2.53
2019-02-17T02:02:33.881Z,2.43
2019-02-17T02:03:33.870Z,2.49
2019-02-17T02:04:33.881Z,2.47
2019-02-17T02:05:33.843Z,2.44
2019-02-17T02:06:33.836Z,2.46
2019-02-17T02:07:33.829Z,2.43
2019-02-17T02:08:33.816Z,2.46
2019-02-17T02:09:33.824Z,2.46
2019-02-17T02:10:33.835Z,2.44
2019-02-17T02:11:33.784Z,2.36
2019-02-17T02:12:33.769Z,2.49
2019-02-17T02:13:33.759Z,2.43
2019-02-17T02:14:33.764Z,2.33
2019-02-17T02:15:33.759Z,2.35
2019-02-17T02:16:33.769Z,2.29
2019-02-17T02:17:33.711Z,2.38
2019-02-17T02:18:33.724Z,2.35
2019-02-17T02:19:33.689Z,2.31
2019-02-17T02:20:33.680Z,2.36
2019-02-17T02:21:33.692Z,2.35
2019-02-17T02:22:33.689Z,2.29
2019-02-17T02:23:33.658Z,2.33
2019-02-17T02:24:33.634Z,2.39
2019-02-17T02:25:33.683Z,2.44
2019-02-17T02:26:33.635Z,2.33
2019-02-17T02:27:33.603Z,2.31
2019-02-17T02:28:33.648Z,2.39
2019-02-17T02:29:40.670Z,2.44
2019-02-17T02:30:34.686Z,2.42
2019-02-17T02:31:33.575Z,2.46
2019-02-17T02:32:33.554Z,2.35
2019-02-17T02:33:33.538Z,2.39
2019-02-17T02:34:33.528Z,2.39
2019-02-17T02:35:33.513Z,2.38
2019-02-17T02:36:33.527Z,2.47
2019-02-17T02:37:33.495Z,2.47
2019-02-17T02:38:33.607Z,2.43
2019-02-17T02:39:33.507Z,2.49
2019-02-17T02:40:33.520Z,2.43
2019-02-17T02:41:34.965Z,2.44
2019-02-17T02:42:33.465Z,2.43
2019-02-17T02:43:33.418Z,2.49
2019-02-17T02:44:33.528Z,2.46
2019-02-17T02:45:33.405Z,2.39
2019-02-17T02:46:33.395Z,2.61
2019-02-17T02:47:33.382Z,2.53
2019-02-17T02:48:33.403Z,2.44
2019-02-17T02:49:33.383Z,2.56
2019-02-17T02:50:33.355Z,2.56
2019-02-17T02:51:33.335Z,2.44
2019-02-17T02:52:33.334Z,2.50
2019-02-17T02:53:33.319Z,2.49
2019-02-17T02:54:33.351Z,2.42
2019-02-17T02:55:33.291Z,2.56
2019-02-17T02:56:33.283Z,2.46
2019-02-17T02:57:33.270Z,2.43
2019-02-17T02:58:33.264Z,2.57
2019-02-17T02:59:33.260Z,2.43
2019-02-17T03:00:33.264Z,2.49
2019-02-17T03:01:33.244Z,2.53
2019-02-17T03:02:33.255Z,2.46
2019-02-17T03:03:33.221Z,2.50
2019-02-17T03:04:33.207Z,2.44
2019-02-17T03:05:33.271Z,2.42
2019-02-17T03:06:33.197Z,2.47
2019-02-17T03:07:33.161Z,2.36
2019-02-17T03:08:33.218Z,2.43
2019-02-17T03:09:33.136Z,2.33
2019-02-17T03:10:33.123Z,2.38
2019-02-17T03:11:33.144Z,2.32
2019-02-17T03:12:33.106Z,2.35
2019-02-17T03:13:33.091Z,2.29
2019-02-17T03:14:33.108Z,2.33
2019-02-17T03:15:33.066Z,2.29
2019-02-17T03:16:33.085Z,2.31
2019-02-17T03:17:33.052Z,2.35
2019-02-17T03:18:33.059Z,2.28
2019-02-17T03:19:33.035Z,2.31
2019-02-17T03:20:33.016Z,2.25
2019-02-17T03:21:33.031Z,2.29
2019-02-17T03:22:33.011Z,2.17
2019-02-17T03:23:32.979Z,2.22
2019-02-17T03:24:32.968Z,2.17
2019-02-17T03:25:32.956Z,2.18
2019-02-17T03:26:32.965Z,2.14
2019-02-17T03:27:33.108Z,2.17
2019-02-17T03:28:32.937Z,2.20
2019-02-17T03:29:32.963Z,2.15
2019-02-17T03:30:32.932Z,2.13
2019-02-17T03:31:33.063Z,2.14
2019-02-17T03:32:32.894Z,2.17
2019-02-17T03:33:32.961Z,2.13
2019-02-17T03:34:32.894Z,2.11
2019-02-17T03:35:32.851Z,2.20
2019-02-17T03:36:32.841Z,2.13
2019-02-17T03:37:32.829Z,2.13
2019-02-17T03:38:32.829Z,2.15
2019-02-17T03:39:32.828Z,2.06
2019-02-17T03:40:32.816Z,2.04
2019-02-17T03:41:32.814Z,1.99
2019-02-17T03:42:32.801Z,1.97
2019-02-17T03:43:32.758Z,2.00
2019-02-17T03:44:32.768Z,2.10
2019-02-17T03:45:32.759Z,1.97
2019-02-17T03:46:32.733Z,1.97
2019-02-17T03:47:32.715Z,1.97
2019-02-17T03:48:32.702Z,1.92
2019-02-17T03:49:32.692Z,1.89
2019-02-17T03:50:32.683Z,1.88
2019-02-17T03:51:32.703Z,1.91
2019-02-17T03:52:32.665Z,1.88
2019-02-17T03:53:32.649Z,1.81
2019-02-17T03:54:32.770Z,1.89
2019-02-17T03:55:32.628Z,1.81
2019-02-17T03:56:32.656Z,1.88
2019-02-17T03:57:32.665Z,1.81
2019-02-17T03:58:32.620Z,1.84
2019-02-17T03:59:32.581Z,1.76
2019-02-17T04:00:32.571Z,1.74
2019-02-17T04:01:32.675Z,1.71
2019-02-17T04:02:32.556Z,1.70
2019-02-17T04:03:32.541Z,1.63
2019-02-17T04:04:32.529Z,1.73
2019-02-17T04:05:32.520Z,1.70
2019-02-17T04:06:32.534Z,1.68
2019-02-17T04:07:32.510Z,1.71
2019-02-17T04:08:32.487Z,1.63
2019-02-17T04:09:32.544Z,1.68
2019-02-17T04:10:32.647Z,1.71
2019-02-17T04:11:32.461Z,1.67
2019-02-17T04:12:32.440Z,1.73
2019-02-17T04:13:32.458Z,1.73
2019-02-17T04:14:32.417Z,1.71
2019-02-17T04:15:32.409Z,1.63
2019-02-17T04:16:32.391Z,1.73
2019-02-17T04:17:32.387Z,1.73
2019-02-17T04:18:32.370Z,1.73
2019-02-17T04:19:32.383Z,1.76
2019-02-17T04:20:32.363Z,1.78
2019-02-17T04:21:33.465Z,1.78
2019-02-17T04:22:32.342Z,1.80
2019-02-17T04:23:32.318Z,1.80
2019-02-17T04:24:32.406Z,1.88
2019-02-17T04:25:32.297Z,1.77
2019-02-17T04:26:32.286Z,1.84
2019-02-17T04:27:32.285Z,1.80
2019-02-17T04:28:32.266Z,1.78
2019-02-17T04:29:32.253Z,1.73
2019-02-17T04:30:32.272Z,1.78
2019-02-17T04:31:32.245Z,1.71
2019-02-17T04:32:32.221Z,1.71
2019-02-17T04:33:32.211Z,1.68
2019-02-17T04:34:32.203Z,1.73
2019-02-17T04:35:32.187Z,1.66
2019-02-17T04:36:32.201Z,1.66
2019-02-17T04:37:32.168Z,1.66
2019-02-17T04:38:32.157Z,1.66
2019-02-17T04:39:32.145Z,1.70
2019-02-17T04:40:32.382Z,1.70
2019-02-17T04:41:32.140Z,1.66
2019-02-17T04:42:32.108Z,1.58
2019-02-17T04:43:32.136Z,1.56
2019-02-17T04:44:32.089Z,1.60
2019-02-17T04:45:32.078Z,1.58
2019-02-17T04:46:32.093Z,1.62
2019-02-17T04:47:32.075Z,1.62
2019-02-17T04:48:32.076Z,1.59
2019-02-17T04:49:32.044Z,1.58
2019-02-17T04:50:32.028Z,1.62
2019-02-17T04:51:32.017Z,1.56
2019-02-17T04:52:32.022Z,1.66
2019-02-17T04:53:32.023Z,1.62
2019-02-17T04:54:32.176Z,1.73
2019-02-17T04:55:31.975Z,1.70
2019-02-17T04:56:31.964Z,1.66
2019-02-17T04:57:32.030Z,1.70
2019-02-17T04:58:31.940Z,1.62
2019-02-17T04:59:31.927Z,1.68
2019-02-17T05:00:39.718Z,1.67
2019-02-17T05:01:32.902Z,1.67
2019-02-17T05:02:31.892Z,1.68
2019-02-17T05:03:31.904Z,1.67
2019-02-17T05:04:31.866Z,1.66
2019-02-17T05:05:31.864Z,1.63
2019-02-17T05:06:31.864Z,1.67
2019-02-17T05:07:31.849Z,1.70
2019-02-17T05:08:31.863Z,1.59
2019-02-17T05:09:31.816Z,1.63
2019-02-17T05:10:31.810Z,1.58
2019-02-17T05:11:31.812Z,1.59
2019-02-17T05:12:31.813Z,1.66
2019-02-17T05:13:31.900Z,1.59
2019-02-17T05:14:31.766Z,1.58
2019-02-17T05:15:31.761Z,1.58
2019-02-17T05:16:31.797Z,1.67
2019-02-17T05:17:31.767Z,1.62
2019-02-17T05:18:32.598Z,1.66
2019-02-17T05:19:31.704Z,1.66
2019-02-17T05:20:31.693Z,1.53
2019-02-17T05:21:31.684Z,1.60
2019-02-17T05:22:31.669Z,1.52
2019-02-17T05:23:31.682Z,1.60
2019-02-17T05:24:31.672Z,1.56
2019-02-17T05:25:31.641Z,1.52
2019-02-17T05:26:31.632Z,1.60
2019-02-17T05:27:32.599Z,1.52
2019-02-17T05:28:31.609Z,1.53
2019-02-17T05:29:31.615Z,1.52
2019-02-17T05:30:31.587Z,1.63
2019-02-17T05:31:31.587Z,1.56
2019-02-17T05:32:31.563Z,1.50
2019-02-17T05:33:31.550Z,1.58
2019-02-17T05:34:31.556Z,1.60
2019-02-17T05:35:31.567Z,1.58
2019-02-17T05:36:31.563Z,1.63
2019-02-17T05:37:31.525Z,1.59
2019-02-17T05:38:31.499Z,1.59
2019-02-17T05:39:31.488Z,1.53
2019-02-17T05:40:31.574Z,1.55
2019-02-17T05:41:31.480Z,1.60
2019-02-17T05:42:31.478Z,1.55
2019-02-17T05:43:31.448Z,1.50
2019-02-17T05:44:31.498Z,1.52
2019-02-17T05:45:31.422Z,1.55
2019-02-17T05:46:31.437Z,1.53
2019-02-17T05:47:31.399Z,1.53
2019-02-17T05:48:31.387Z,1.67
2019-02-17T05:49:31.392Z,1.67
2019-02-17T05:50:31.370Z,1.52
2019-02-17T05:51:31.376Z,1.63
2019-02-17T05:52:31.348Z,1.66
2019-02-17T05:53:31.336Z,1.56
2019-02-17T05:54:31.320Z,1.50
2019-02-17T05:55:31.309Z,1.66
2019-02-17T05:56:31.306Z,1.53
2019-02-17T05:57:31.308Z,1.67
2019-02-17T05:58:31.277Z,1.63
2019-02-17T05:59:31.488Z,1.66
2019-02-17T06:00:31.304Z,1.55
2019-02-17T06:01:31.258Z,1.56
2019-02-17T06:02:31.318Z,1.67
2019-02-17T06:03:31.245Z,1.58
2019-02-17T06:04:31.216Z,1.59
2019-02-17T06:05:31.201Z,1.59
2019-02-17T06:06:31.189Z,1.67
2019-02-17T06:07:31.183Z,1.71
2019-02-17T06:08:31.168Z,1.62
2019-02-17T06:09:31.180Z,1.60
2019-02-17T06:10:31.164Z,1.63
2019-02-17T06:11:31.149Z,1.63
2019-02-17T06:12:31.126Z,1.66
2019-02-17T06:13:31.124Z,1.58
2019-02-17T06:14:31.107Z,1.63
2019-02-17T06:15:31.130Z,1.66
2019-02-17T06:16:31.091Z,1.59
2019-02-17T06:17:31.073Z,1.63
2019-02-17T06:18:31.059Z,1.63
2019-02-17T06:19:31.089Z,1.66
2019-02-17T06:20:31.037Z,1.71
2019-02-17T06:21:31.037Z,1.70
2019-02-17T06:22:31.019Z,1.70
2019-02-17T06:23:31.032Z,1.68
2019-02-17T06:24:31.017Z,1.76
2019-02-17T06:25:31.016Z,1.76
2019-02-17T06:26:30.993Z,1.84
2019-02-17T06:27:30.958Z,1.81
2019-02-17T06:28:30.980Z,1.85
2019-02-17T06:29:30.970Z,1.87
2019-02-17T06:30:30.972Z,1.87
2019-02-17T06:31:30.920Z,1.80
2019-02-17T06:32:30.904Z,1.80
2019-02-17T06:33:30.902Z,1.91
2019-02-17T06:34:30.896Z,1.92
2019-02-17T06:35:30.877Z,1.89
2019-02-17T06:36:30.906Z,2.00
2019-02-17T06:37:30.867Z,1.97
2019-02-17T06:38:30.841Z,2.10
2019-02-17T06:39:30.842Z,2.02
2019-02-17T06:40:30.837Z,1.99
2019-02-17T06:41:30.835Z,1.99
2019-02-17T06:42:30.875Z,2.11
2019-02-17T06:43:30.820Z,2.10
2019-02-17T06:44:30.783Z,2.08
2019-02-17T06:45:30.767Z,2.17
2019-02-17T06:46:30.766Z,2.14
2019-02-17T06:47:30.761Z,2.14
2019-02-17T06:48:30.766Z,2.15
2019-02-17T06:49:30.745Z,2.22
2019-02-17T06:50:32.797Z,2.29
2019-02-17T06:51:30.706Z,2.32
2019-02-17T06:52:30.732Z,2.38
2019-02-17T06:53:30.882Z,2.33
2019-02-17T06:54:31.608Z,2.44
2019-02-17T06:55:30.667Z,2.44
2019-02-17T06:56:30.709Z,2.42
2019-02-17T06:57:30.642Z,2.56
2019-02-17T06:58:30.647Z,2.50
2019-02-17T06:59:30.640Z,2.57
2019-02-17T07:00:30.602Z,2.65
2019-02-17T07:01:30.600Z,2.80
2019-02-17T07:02:30.581Z,2.68
2019-02-17T07:03:30.587Z,2.74
2019-02-17T07:04:30.582Z,2.83
2019-02-17T07:05:30.547Z,2.93
2019-02-17T07:06:30.537Z,2.90
2019-02-17T07:07:30.542Z,3.03
2019-02-17T07:08:30.567Z,2.98
2019-02-17T07:09:30.522Z,3.04
2019-02-17T07:10:30.491Z,2.98
2019-02-17T07:11:30.516Z,3.13
2019-02-17T07:12:31.117Z,3.19
2019-02-17T07:13:30.471Z,3.13
2019-02-17T07:14:30.486Z,3.21
2019-02-17T07:15:30.467Z,3.29
2019-02-17T07:16:30.428Z,3.29
2019-02-17T07:17:30.440Z,3.45
2019-02-17T07:18:30.417Z,3.28
2019-02-17T07:19:30.398Z,3.42
2019-02-17T07:20:30.385Z,3.45
2019-02-17T07:21:30.392Z,3.32
2019-02-17T07:22:30.379Z,3.48
2019-02-17T07:23:30.376Z,3.50
2019-02-17T07:24:30.334Z,3.55
2019-02-17T07:25:30.685Z,3.58
2019-02-17T07:26:30.371Z,3.63
2019-02-17T07:27:30.321Z,3.73
2019-02-17T07:28:30.287Z,3.77
2019-02-17T07:29:30.310Z,3.68
2019-02-17T07:30:30.269Z,3.83
2019-02-17T07:31:34.968Z,3.83
2019-02-17T07:32:31.338Z,3.87
2019-02-17T07:33:30.244Z,3.95
2019-02-17T07:34:30.228Z,3.98
2019-02-17T07:35:30.237Z,3.98
2019-02-17T07:36:30.242Z,3.98
2019-02-17T07:37:33.493Z,4.01
2019-02-17T07:38:30.188Z,4.08
2019-02-17T07:39:30.176Z,4.13
2019-02-17T07:40:30.160Z,4.17
2019-02-17T07:41:30.152Z,4.20
2019-02-17T07:42:30.161Z,4.16
2019-02-17T07:43:30.135Z,4.34
2019-02-17T07:44:30.150Z,4.42
2019-02-17T07:45:30.254Z,4.40
2019-02-17T07:46:30.130Z,4.42
2019-02-17T07:47:30.169Z,4.45
2019-02-17T07:48:30.085Z,4.52
2019-02-17T07:49:30.063Z,4.63
2019-02-17T07:50:30.068Z,4.62
2019-02-17T07:51:30.117Z,4.68
2019-02-17T07:52:30.066Z,4.74
2019-02-17T07:53:30.025Z,4.74
2019-02-17T07:54:30.033Z,4.89
2019-02-17T07:55:29.999Z,4.94
2019-02-17T07:56:29.982Z,4.94
2019-02-17T07:57:29.995Z,4.96
2019-02-17T07:58:29.967Z,5.08
2019-02-17T07:59:29.949Z,5.10
2019-02-17T08:00:29.948Z,5.18
2019-02-17T08:01:29.937Z,5.20
2019-02-17T08:02:29.944Z,5.28
2019-02-17T08:03:29.905Z,5.28
2019-02-17T08:04:29.951Z,5.43
2019-02-17T08:05:29.883Z,5.48
2019-02-17T08:06:29.871Z,5.66
2019-02-17T08:07:29.884Z,5.68
2019-02-17T08:08:29.865Z,5.69
2019-02-17T08:09:29.861Z,5.76
2019-02-17T08:10:29.853Z,5.97
2019-02-17T08:11:29.825Z,5.93
2019-02-17T08:12:29.822Z,6.02
2019-02-17T08:13:29.797Z,6.07
2019-02-17T08:14:29.788Z,6.09
2019-02-17T08:15:29.816Z,6.20
2019-02-17T08:16:29.810Z,6.19
2019-02-17T08:17:29.771Z,6.36
2019-02-17T08:18:29.746Z,6.33
2019-02-17T08:19:29.727Z,6.41
2019-02-17T08:20:29.733Z,6.46
2019-02-17T08:21:29.745Z,6.59
2019-02-17T08:22:29.706Z,6.63
2019-02-17T08:23:29.686Z,6.70
2019-02-17T08:24:29.673Z,6.78
2019-02-17T08:25:29.713Z,6.87
2019-02-17T08:26:29.647Z,6.89
2019-02-17T08:27:29.647Z,7.02
2019-02-17T08:28:29.659Z,7.10
2019-02-17T08:29:29.615Z,7.20
2019-02-17T08:30:29.617Z,7.25
2019-02-17T08:31:29.748Z,7.38
2019-02-17T08:32:29.591Z,7.42
2019-02-17T08:33:29.571Z,7.47
2019-02-17T08:34:29.567Z,7.56
2019-02-17T08:35:29.546Z,7.61
2019-02-17T08:36:29.574Z,7.72
2019-02-17T08:37:29.563Z,7.73
2019-02-17T08:38:29.522Z,7.83
2019-02-17T08:39:29.544Z,7.88
2019-02-17T08:40:29.515Z,7.93
2019-02-17T08:41:29.516Z,7.97
2019-02-17T08:42:29.506Z,8.10
2019-02-17T08:43:29.454Z,8.10
2019-02-17T08:44:29.452Z,8.18
2019-02-17T08:45:29.440Z,8.15
2019-02-17T08:46:29.462Z,8.24
2019-02-17T08:47:29.436Z,8.28
2019-02-17T08:48:29.412Z,8.36
2019-02-17T08:49:29.400Z,8.38
2019-02-17T08:50:29.385Z,8.36
2019-02-17T08:51:29.376Z,8.48
2019-02-17T08:52:29.353Z,8.51
2019-02-17T08:53:29.367Z,8.51
2019-02-17T08:54:29.331Z,8.58
2019-02-17T08:55:29.330Z,8.64
2019-02-17T08:56:29.316Z,8.64
2019-02-17T08:57:29.304Z,8.71
2019-02-17T08:58:29.499Z,8.82
2019-02-17T08:59:29.284Z,8.74
2019-02-17T09:00:29.296Z,8.85
2019-02-17T09:01:29.412Z,8.84
2019-02-17T09:02:29.244Z,8.81
2019-02-17T09:03:29.242Z,8.94
2019-02-17T09:04:29.301Z,8.94
2019-02-17T09:05:29.211Z,9.03
2019-02-17T09:06:29.232Z,8.94
2019-02-17T09:07:29.203Z,9.06
2019-02-17T09:08:29.185Z,9.06
2019-02-17T09:09:29.164Z,9.03
2019-02-17T09:10:29.153Z,9.18
2019-02-17T09:11:29.142Z,9.13
2019-02-17T09:12:29.363Z,9.21
2019-02-17T09:13:29.124Z,9.26
2019-02-17T09:14:29.129Z,9.28
2019-02-17T09:15:29.127Z,9.25
2019-02-17T09:16:29.097Z,9.29
2019-02-17T09:17:29.103Z,9.40
2019-02-17T09:18:29.148Z,9.43
2019-02-17T09:19:29.060Z,9.44
2019-02-17T09:20:29.050Z,9.46
2019-02-17T09:21:29.043Z,9.43
2019-02-17T09:22:29.059Z,9.58
2019-02-17T09:23:29.015Z,9.48
2019-02-17T09:24:29.009Z,9.59
2019-02-17T09:25:28.995Z,9.58
2019-02-17T09:26:29.690Z,9.65
2019-02-17T09:27:28.970Z,9.65
2019-02-17T09:28:28.980Z,9.66
2019-02-17T09:29:28.947Z,9.74
2019-02-17T09:30:28.954Z,9.73
2019-02-17T09:31:29.632Z,9.84
2019-02-17T09:32:28.919Z,9.84
2019-02-17T09:33:28.904Z,9.89
2019-02-17T09:34:28.961Z,9.98
2019-02-17T09:35:28.895Z,10.05
2019-02-17T09:36:28.867Z,10.01
2019-02-17T09:37:28.863Z,10.15
2019-02-17T09:38:28.858Z,10.07
2019-02-17T09:39:28.856Z,10.16
2019-02-17T09:40:28.849Z,10.15
2019-02-17T09:41:28.814Z,10.13
2019-02-17T09:42:28.854Z,10.19
2019-02-17T09:43:28.796Z,10.23
2019-02-17T09:44:28.792Z,10.30
2019-02-17T09:45:28.797Z,10.19
2019-02-17T09:46:28.764Z,10.30
2019-02-17T09:47:28.754Z,10.25
2019-02-17T09:48:28.740Z,10.41
2019-02-17T09:49:28.752Z,10.38
2019-02-17T09:50:28.718Z,10.41
2019-02-17T09:51:28.759Z,10.54
2019-02-17T09:52:28.699Z,10.44
2019-02-17T09:53:28.687Z,10.49
2019-02-17T09:54:28.686Z,10.49
2019-02-17T09:55:28.666Z,10.48
2019-02-17T09:56:28.693Z,10.48
2019-02-17T09:57:28.664Z,10.54
2019-02-17T09:58:28.746Z,10.60
2019-02-17T09:59:28.608Z,10.63
2019-02-17T10:00:28.605Z,10.78
2019-02-17T10:01:28.599Z,10.69
2019-02-17T10:02:28.606Z,10.74
2019-02-17T10:03:28.574Z,10.69
2019-02-17T10:04:28.555Z,10.75
2019-02-17T10:05:28.561Z,10.84
2019-02-17T10:06:28.539Z,10.79
2019-02-17T10:07:28.549Z,10.94
2019-02-17T10:08:28.541Z,10.87
2019-02-17T10:09:28.506Z,10.99
2019-02-17T10:10:28.489Z,11.02
2019-02-17T10:11:28.477Z,11.02
2019-02-17T10:12:28.465Z,11.00
2019-02-17T10:13:28.463Z,11.05
2019-02-17T10:14:28.472Z,11.11
2019-02-17T10:15:28.459Z,11.07
2019-02-17T10:16:28.425Z,11.10
2019-02-17T10:17:28.462Z,11.19
2019-02-17T10:18:28.409Z,11.18
2019-02-17T10:19:28.422Z,11.25
2019-02-17T10:20:28.427Z,11.27
2019-02-17T10:21:28.365Z,11.27
2019-02-17T10:22:28.356Z,11.27
2019-02-17T10:23:28.340Z,11.25
2019-02-17T10:24:28.355Z,11.30
2019-02-17T10:25:28.328Z,11.30
2019-02-17T10:26:28.307Z,11.36
2019-02-17T10:27:28.297Z,11.43
2019-02-17T10:28:28.287Z,11.50
2019-02-17T10:29:28.298Z,11.55
2019-02-17T10:30:28.256Z,11.52
2019-02-17T10:31:28.250Z,11.54
2019-02-17T10:32:37.126Z,11.57
2019-02-17T10:33:29.257Z,11.57
2019-02-17T10:34:28.223Z,11.70
2019-02-17T10:35:28.218Z,11.63
2019-02-17T10:36:28.235Z,11.70
2019-02-17T10:37:28.198Z,11.69
2019-02-17T10:38:28.201Z,11.73
2019-02-17T10:39:28.173Z,11.83
2019-02-17T10:40:28.156Z,11.83
2019-02-17T10:41:28.177Z,11.86
2019-02-17T10:42:28.129Z,11.83
2019-02-17T10:43:28.138Z,11.87
2019-02-17T10:44:28.117Z,11.91
2019-02-17T10:45:28.105Z,11.95
2019-02-17T10:46:28.087Z,11.95
2019-02-17T10:47:28.131Z,11.97
2019-02-17T10:48:28.086Z,12.09
2019-02-17T10:49:28.092Z,12.10
2019-02-17T10:50:28.048Z,12.02
2019-02-17T10:51:28.040Z,12.07
2019-02-17T10:52:28.019Z,12.15
2019-02-17T10:53:28.013Z,12.21
2019-02-17T10:54:28.000Z,12.13
2019-02-17T10:55:28.018Z,12.25
2019-02-17T10:56:27.979Z,12.21
2019-02-17T10:57:27.990Z,12.29
2019-02-17T10:58:27.948Z,12.25
2019-02-17T10:59:27.937Z,12.36
2019-02-17T11:00:27.930Z,12.32
2019-02-17T11:01:27.938Z,12.40
2019-02-17T11:02:27.912Z,12.40
2019-02-17T11:03:28.025Z,12.46
2019-02-17T11:04:27.885Z,12.43
2019-02-17T11:05:27.898Z,12.50
2019-02-17T11:06:27.878Z,12.53
2019-02-17T11:07:27.851Z,12.53
2019-02-17T11:08:27.834Z,12.64
2019-02-17T11:09:27.826Z,12.67
2019-02-17T11:10:27.844Z,12.68
2019-02-17T11:11:27.955Z,12.68
2019-02-17T11:12:27.799Z,12.70
2019-02-17T11:13:27.815Z,12.73
2019-02-17T11:14:27.764Z,12.80
2019-02-17T11:15:27.755Z,12.78
2019-02-17T11:16:27.744Z,12.83
2019-02-17T11:17:27.731Z,12.85
2019-02-17T11:18:27.729Z,12.90
2019-02-17T11:19:27.734Z,12.91
2019-02-17T11:20:27.707Z,12.98
2019-02-17T11:21:27.722Z,13.00
2019-02-17T11:22:27.688Z,13.08
2019-02-17T11:23:27.671Z,13.05
2019-02-17T11:24:28.660Z,13.15
2019-02-17T11:25:27.645Z,13.11
2019-02-17T11:26:27.633Z,13.11
2019-02-17T11:27:27.657Z,13.13
2019-02-17T11:28:27.604Z,13.20
2019-02-17T11:29:27.597Z,13.18
2019-02-17T11:30:27.697Z,13.28
2019-02-17T11:31:27.583Z,13.28
2019-02-17T11:32:27.569Z,13.18
2019-02-17T11:33:27.552Z,13.31
2019-02-17T11:34:27.553Z,13.38
2019-02-17T11:35:29.738Z,13.42
2019-02-17T11:36:27.521Z,13.42
2019-02-17T11:37:27.505Z,13.41
2019-02-17T11:38:27.510Z,13.50
2019-02-17T11:39:27.497Z,13.47
2019-02-17T11:40:27.515Z,13.46
2019-02-17T11:41:27.476Z,13.54
2019-02-17T11:42:27.478Z,13.57
2019-02-17T11:43:27.453Z,13.54
2019-02-17T11:44:27.431Z,13.59
2019-02-17T11:45:27.421Z,13.62
2019-02-17T11:46:27.443Z,13.65
2019-02-17T11:47:27.404Z,13.68
2019-02-17T11:48:27.405Z,13.65
2019-02-17T11:49:27.385Z,13.65
2019-02-17T11:50:27.380Z,13.72
2019-02-17T11:51:27.394Z,13.65
2019-02-17T11:52:27.371Z,13.74
2019-02-17T11:53:27.342Z,13.77
2019-02-17T11:54:27.328Z,13.77
2019-02-17T11:55:27.311Z,13.72
2019-02-17T11:56:27.310Z,13.79
2019-02-17T11:57:27.298Z,13.75
2019-02-17T11:58:27.302Z,13.75
2019-02-17T11:59:27.283Z,13.77
2019-02-17T12:00:27.396Z,13.75
2019-02-17T12:01:27.253Z,13.77
2019-02-17T12:02:27.239Z,13.77
2019-02-17T12:03:27.254Z,13.77
2019-02-17T12:04:27.210Z,13.90
2019-02-17T12:05:27.191Z,13.87
2019-02-17T12:06:27.209Z,13.81
2019-02-17T12:07:27.183Z,13.86
2019-02-17T12:08:27.160Z,13.92
2019-02-17T12:09:27.178Z,13.92
2019-02-17T12:10:27.142Z,13.99
2019-02-17T12:11:27.150Z,14.03
2019-02-17T12:12:27.118Z,14.07
2019-02-17T12:13:27.129Z,14.12
2019-02-17T12:14:27.096Z,14.17
2019-02-17T12:15:27.115Z,14.14
2019-02-17T12:16:36.517Z,14.29
2019-02-17T12:17:28.064Z,14.22
2019-02-17T12:18:27.057Z,14.32
2019-02-17T12:19:27.138Z,14.29
2019-02-17T12:20:27.045Z,14.29
2019-02-17T12:21:27.024Z,14.36
2019-02-17T12:22:27.004Z,14.41
2019-02-17T12:23:26.991Z,14.44
2019-02-17T12:24:26.976Z,14.50
2019-02-17T12:25:26.966Z,14.55
2019-02-17T12:26:26.984Z,14.62
2019-02-17T12:27:27.223Z,14.73
2019-02-17T12:28:26.954Z,14.99
2019-02-17T12:29:26.933Z,15.11
2019-02-17T12:30:26.964Z,15.29
2019-02-17T12:31:27.129Z,15.31
2019-02-17T12:32:26.928Z,15.42
2019-02-17T12:33:26.927Z,15.43
2019-02-17T12:34:26.874Z,15.46
2019-02-17T12:35:26.892Z,15.40
2019-02-17T12:36:26.847Z,15.46
2019-02-17T12:37:26.881Z,15.54
2019-02-17T12:38:26.842Z,15.70
2019-02-17T12:39:26.848Z,15.72
2019-02-17T12:40:26.830Z,16.04
2019-02-17T12:41:26.822Z,16.36
2019-02-17T12:42:26.778Z,16.66
2019-02-17T12:43:26.781Z,16.87
2019-02-17T12:44:26.798Z,17.27
2019-02-17T12:45:26.806Z,17.57
2019-02-17T12:46:26.738Z,17.80
2019-02-17T12:47:26.736Z,17.97
2019-02-17T12:48:26.707Z,18.05
2019-02-17T12:49:26.702Z,18.19
2019-02-17T12:50:26.742Z,18.23
2019-02-17T12:51:26.696Z,18.22
2019-02-17T12:52:26.720Z,18.22
2019-02-17T12:53:26.671Z,18.11
2019-02-17T12:54:29.134Z,18.18
2019-02-17T12:55:26.672Z,18.03
2019-02-17T12:56:26.741Z,17.95
2019-02-17T12:57:26.781Z,17.86
2019-02-17T12:58:29.986Z,17.86
2019-02-17T12:59:26.608Z,17.78
2019-02-17T13:00:26.625Z,17.74
2019-02-17T13:01:26.602Z,17.79
2019-02-17T13:02:26.557Z,17.80
2019-02-17T13:03:28.816Z,17.80
2019-02-17T13:04:26.551Z,17.79
2019-02-17T13:05:26.548Z,17.79
2019-02-17T13:06:26.779Z,17.90
2019-02-17T13:07:26.506Z,17.94
2019-02-17T13:08:26.485Z,17.95
2019-02-17T13:09:26.491Z,17.90
2019-02-17T13:10:26.467Z,17.76
2019-02-17T13:11:26.506Z,17.80